sensor_id;sensor_type;location;lat;lon;timestamp;temperature;humidity
26479;DHT22;14163;-26.142;27.992;2023-03-01T02:03:44;22.20;99.90
26479;DHT22;14163;-26.142;27.992;2023-03-01T02:06:17;19.60;99.90
26479;DHT22;14163;-26.142;27.992;2023-03-01T02:08:46;20.20;99.90
26479;DHT22;14163;-26.142;27.992;2023-03-01T02:11:15;21.00;99.90
26479;DHT22;14163;-26.142;27.992;2023-03-01T02:13:45;21.80;99.90
26479;DHT22;14163;-26.142;27.992;2023-03-01T02:16:15;22.20;99.90
26479;DHT22;14163;-26.142;27.992;2023-03-01T02:18:46;22.60;99.90
26479;DHT22;14163;-26.142;27.992;2023-03-01T02:21:20;22.90;99.90
26479;DHT22;14163;-26.142;27.992;2023-03-01T02:23:53;23.10;99.90
26479;DHT22;14163;-26.142;27.992;2023-03-01T02:26:25;23.20;99.90
26479;DHT22;14163;-26.142;27.992;2023-03-01T02:28:58;23.40;99.90
26479;DHT22;14163;-26.142;27.992;2023-03-01T02:31:27;23.50;99.90
26479;DHT22;14163;-26.142;27.992;2023-03-01T02:34:11;23.50;99.90
26479;DHT22;14163;-26.142;27.992;2023-03-01T02:36:40;23.50;99.90
26479;DHT22;14163;-26.142;27.992;2023-03-01T02:39:11;23.50;99.90
26479;DHT22;14163;-26.142;27.992;2023-03-01T02:41:41;23.50;99.90
26479;DHT22;14163;-26.142;27.992;2023-03-01T02:44:12;23.50;99.90
26479;DHT22;14163;-26.142;27.992;2023-03-01T02:46:44;23.50;99.90
26479;DHT22;14163;-26.142;27.992;2023-03-01T02:49:18;23.30;99.90
26479;DHT22;14163;-26.142;27.992;2023-03-01T02:51:48;23.30;99.90
26479;DHT22;14163;-26.142;27.992;2023-03-01T02:54:22;23.30;99.90
26479;DHT22;14163;-26.142;27.992;2023-03-01T02:56:51;23.40;99.90
26479;DHT22;14163;-26.142;27.992;2023-03-01T02:59:21;23.50;99.90
26479;DHT22;14163;-26.142;27.992;2023-03-01T03:01:50;23.50;99.90
26479;DHT22;14163;-26.142;27.992;2023-03-01T03:04:18;23.40;99.90
26479;DHT22;14163;-26.142;27.992;2023-03-01T03:06:48;23.40;99.90
26479;DHT22;14163;-26.142;27.992;2023-03-01T03:09:17;23.50;99.90
26479;DHT22;14163;-26.142;27.992;2023-03-01T03:11:45;23.50;99.90
26479;DHT22;14163;-26.142;27.992;2023-03-01T03:14:14;23.70;99.90
26479;DHT22;14163;-26.142;27.992;2023-03-01T03:16:45;23.70;99.90
26479;DHT22;14163;-26.142;27.992;2023-03-01T03:19:14;23.70;99.90
26479;DHT22;14163;-26.142;27.992;2023-03-01T03:21:43;23.80;99.90
26479;DHT22;14163;-26.142;27.992;2023-03-01T03:24:11;23.70;99.90
26479;DHT22;14163;-26.142;27.992;2023-03-01T03:26:39;23.70;99.90
26479;DHT22;14163;-26.142;27.992;2023-03-01T03:29:08;23.70;99.90
26479;DHT22;14163;-26.142;27.992;2023-03-01T03:31:36;23.70;99.90
26479;DHT22;14163;-26.142;27.992;2023-03-01T03:34:06;23.80;99.90
26479;DHT22;14163;-26.142;27.992;2023-03-01T03:36:36;23.80;99.90
26479;DHT22;14163;-26.142;27.992;2023-03-01T03:39:05;23.80;99.90
26479;DHT22;14163;-26.142;27.992;2023-03-01T03:41:34;23.70;99.90
26479;DHT22;14163;-26.142;27.992;2023-03-01T03:44:02;23.60;99.90
26479;DHT22;14163;-26.142;27.992;2023-03-01T03:46:31;23.50;99.90
26479;DHT22;14163;-26.142;27.992;2023-03-01T03:48:59;23.50;99.90
26479;DHT22;14163;-26.142;27.992;2023-03-01T03:51:29;23.50;99.90
26479;DHT22;14163;-26.142;27.992;2023-03-01T03:53:57;23.50;99.90
26479;DHT22;14163;-26.142;27.992;2023-03-01T03:56:26;23.60;99.90
26479;DHT22;14163;-26.142;27.992;2023-03-01T03:58:54;23.60;99.90
26479;DHT22;14163;-26.142;27.992;2023-03-01T04:01:22;23.60;99.90
26479;DHT22;14163;-26.142;27.992;2023-03-01T04:03:51;23.60;99.90
26479;DHT22;14163;-26.142;27.992;2023-03-01T04:06:20;23.50;99.90
26479;DHT22;14163;-26.142;27.992;2023-03-01T04:08:50;23.50;99.90
26479;DHT22;14163;-26.142;27.992;2023-03-01T04:11:24;23.50;99.90
26479;DHT22;14163;-26.142;27.992;2023-03-01T04:13:56;23.50;99.90
26479;DHT22;14163;-26.142;27.992;2023-03-01T04:16:25;23.50;99.90
26479;DHT22;14163;-26.142;27.992;2023-03-01T04:18:53;23.50;99.90
26479;DHT22;14163;-26.142;27.992;2023-03-01T04:21:22;23.50;99.90
26479;DHT22;14163;-26.142;27.992;2023-03-01T04:23:52;23.60;99.90
26479;DHT22;14163;-26.142;27.992;2023-03-01T04:26:20;23.60;99.90
26479;DHT22;14163;-26.142;27.992;2023-03-01T04:28:49;23.60;99.90
26479;DHT22;14163;-26.142;27.992;2023-03-01T04:31:17;23.60;99.90
26479;DHT22;14163;-26.142;27.992;2023-03-01T04:33:47;23.60;99.90
26479;DHT22;14163;-26.142;27.992;2023-03-01T04:36:17;23.60;99.90
26479;DHT22;14163;-26.142;27.992;2023-03-01T04:38:46;23.60;99.90
26479;DHT22;14163;-26.142;27.992;2023-03-01T04:41:16;23.70;99.90
26479;DHT22;14163;-26.142;27.992;2023-03-01T04:43:45;23.80;99.90
26479;DHT22;14163;-26.142;27.992;2023-03-01T04:46:16;23.80;99.90
26479;DHT22;14163;-26.142;27.992;2023-03-01T04:48:44;23.80;99.90
26479;DHT22;14163;-26.142;27.992;2023-03-01T04:51:13;23.80;99.90
26479;DHT22;14163;-26.142;27.992;2023-03-01T04:53:42;23.90;99.90
26479;DHT22;14163;-26.142;27.992;2023-03-01T04:56:11;23.90;99.90
26479;DHT22;14163;-26.142;27.992;2023-03-01T04:58:41;24.00;99.90
26479;DHT22;14163;-26.142;27.992;2023-03-01T05:01:10;24.00;99.90
26479;DHT22;14163;-26.142;27.992;2023-03-01T05:03:41;24.00;99.90
26479;DHT22;14163;-26.142;27.992;2023-03-01T05:06:10;24.00;99.90
26479;DHT22;14163;-26.142;27.992;2023-03-01T05:08:39;24.10;99.90
26479;DHT22;14163;-26.142;27.992;2023-03-01T05:11:08;24.20;99.90
26479;DHT22;14163;-26.142;27.992;2023-03-01T05:13:37;24.30;99.90
26479;DHT22;14163;-26.142;27.992;2023-03-01T05:16:07;24.30;99.90
26479;DHT22;14163;-26.142;27.992;2023-03-01T05:18:37;24.30;99.90
26479;DHT22;14163;-26.142;27.992;2023-03-01T05:21:06;24.30;99.90
26479;DHT22;14163;-26.142;27.992;2023-03-01T05:23:35;24.30;99.90
26479;DHT22;14163;-26.142;27.992;2023-03-01T05:26:04;24.30;99.90
26479;DHT22;14163;-26.142;27.992;2023-03-01T05:28:34;24.40;99.90
26479;DHT22;14163;-26.142;27.992;2023-03-01T05:31:03;24.30;99.90
26479;DHT22;14163;-26.142;27.992;2023-03-01T05:33:37;24.30;99.90
26479;DHT22;14163;-26.142;27.992;2023-03-01T05:36:06;24.50;99.90
26479;DHT22;14163;-26.142;27.992;2023-03-01T05:38:35;24.40;99.90
26479;DHT22;14163;-26.142;27.992;2023-03-01T05:41:04;24.50;99.90
26479;DHT22;14163;-26.142;27.992;2023-03-01T05:43:32;24.60;99.90
26479;DHT22;14163;-26.142;27.992;2023-03-01T05:46:00;24.70;99.90
26479;DHT22;14163;-26.142;27.992;2023-03-01T05:48:29;24.70;99.90
26479;DHT22;14163;-26.142;27.992;2023-03-01T05:50:59;24.60;99.90
26479;DHT22;14163;-26.142;27.992;2023-03-01T05:53:28;24.70;99.90
26479;DHT22;14163;-26.142;27.992;2023-03-01T05:55:56;24.70;99.90
26479;DHT22;14163;-26.142;27.992;2023-03-01T05:58:24;24.70;99.90
26479;DHT22;14163;-26.142;27.992;2023-03-01T06:00:53;24.80;99.90
26479;DHT22;14163;-26.142;27.992;2023-03-01T06:03:21;24.80;99.90
26479;DHT22;14163;-26.142;27.992;2023-03-01T06:05:49;24.90;99.90
26479;DHT22;14163;-26.142;27.992;2023-03-01T06:08:19;24.90;99.90
26479;DHT22;14163;-26.142;27.992;2023-03-01T06:10:48;24.90;99.90
26479;DHT22;14163;-26.142;27.992;2023-03-01T06:13:16;24.90;99.90
26479;DHT22;14163;-26.142;27.992;2023-03-01T06:15:44;25.00;99.90
26479;DHT22;14163;-26.142;27.992;2023-03-01T06:18:13;25.10;99.90
26479;DHT22;14163;-26.142;27.992;2023-03-01T06:20:41;25.10;99.90
26479;DHT22;14163;-26.142;27.992;2023-03-01T06:23:09;25.20;99.90
26479;DHT22;14163;-26.142;27.992;2023-03-01T06:25:39;25.20;99.90
26479;DHT22;14163;-26.142;27.992;2023-03-01T06:28:07;25.10;99.90
26479;DHT22;14163;-26.142;27.992;2023-03-01T06:30:37;25.20;99.90
26479;DHT22;14163;-26.142;27.992;2023-03-01T06:33:05;25.30;99.90
26479;DHT22;14163;-26.142;27.992;2023-03-01T06:35:34;25.40;99.90
26479;DHT22;14163;-26.142;27.992;2023-03-01T06:38:02;25.50;99.90
26479;DHT22;14163;-26.142;27.992;2023-03-01T06:40:31;25.50;99.90
26479;DHT22;14163;-26.142;27.992;2023-03-01T06:43:02;25.50;99.90
26479;DHT22;14163;-26.142;27.992;2023-03-01T06:45:31;25.50;99.90
26479;DHT22;14163;-26.142;27.992;2023-03-01T06:48:03;25.50;99.90
26479;DHT22;14163;-26.142;27.992;2023-03-01T06:50:32;25.50;99.90
26479;DHT22;14163;-26.142;27.992;2023-03-01T06:53:00;25.50;99.90
26479;DHT22;14163;-26.142;27.992;2023-03-01T06:55:29;25.50;99.90
26479;DHT22;14163;-26.142;27.992;2023-03-01T06:57:57;25.50;99.90
26479;DHT22;14163;-26.142;27.992;2023-03-01T07:00:28;25.60;99.90
26479;DHT22;14163;-26.142;27.992;2023-03-01T07:02:58;25.60;99.90
26479;DHT22;14163;-26.142;27.992;2023-03-01T07:05:27;25.60;99.90
26479;DHT22;14163;-26.142;27.992;2023-03-01T07:07:56;25.60;99.90
26479;DHT22;14163;-26.142;27.992;2023-03-01T07:10:24;25.60;99.90
26479;DHT22;14163;-26.142;27.992;2023-03-01T07:12:54;25.70;99.90
26479;DHT22;14163;-26.142;27.992;2023-03-01T07:15:22;25.80;99.90
26479;DHT22;14163;-26.142;27.992;2023-03-01T07:17:52;25.80;99.90
26479;DHT22;14163;-26.142;27.992;2023-03-01T07:20:21;25.80;99.90
26479;DHT22;14163;-26.142;27.992;2023-03-01T07:22:52;25.60;99.90
26479;DHT22;14163;-26.142;27.992;2023-03-01T07:25:20;25.70;99.90
26479;DHT22;14163;-26.142;27.992;2023-03-01T07:27:49;25.80;99.90
26479;DHT22;14163;-26.142;27.992;2023-03-01T07:30:18;25.90;99.90
26479;DHT22;14163;-26.142;27.992;2023-03-01T07:32:47;26.10;99.90
26479;DHT22;14163;-26.142;27.992;2023-03-01T07:35:17;26.20;99.90
26479;DHT22;14163;-26.142;27.992;2023-03-01T07:37:45;26.20;99.90
26479;DHT22;14163;-26.142;27.992;2023-03-01T07:40:13;26.30;99.90
26479;DHT22;14163;-26.142;27.992;2023-03-01T07:42:42;26.40;99.90
26479;DHT22;14163;-26.142;27.992;2023-03-01T07:45:10;26.40;99.90
26479;DHT22;14163;-26.142;27.992;2023-03-01T07:47:39;26.40;99.90
26479;DHT22;14163;-26.142;27.992;2023-03-01T07:50:08;26.50;99.90
26479;DHT22;14163;-26.142;27.992;2023-03-01T07:52:38;26.50;99.90
26479;DHT22;14163;-26.142;27.992;2023-03-01T07:55:07;26.50;99.90
26479;DHT22;14163;-26.142;27.992;2023-03-01T07:57:35;26.50;99.90
26479;DHT22;14163;-26.142;27.992;2023-03-01T08:00:04;26.50;99.90
26479;DHT22;14163;-26.142;27.992;2023-03-01T10:07:29;23.50;99.90
26479;DHT22;14163;-26.142;27.992;2023-03-01T10:10:00;23.80;99.90
26479;DHT22;14163;-26.142;27.992;2023-03-01T10:12:33;24.60;99.90
26479;DHT22;14163;-26.142;27.992;2023-03-01T10:15:03;25.50;99.90
26479;DHT22;14163;-26.142;27.992;2023-03-01T10:17:33;26.30;99.90
26479;DHT22;14163;-26.142;27.992;2023-03-01T10:20:15;27.10;99.90
26479;DHT22;14163;-26.142;27.992;2023-03-01T10:22:46;27.70;99.90
26479;DHT22;14163;-26.142;27.992;2023-03-01T10:25:17;28.10;99.90
26479;DHT22;14163;-26.142;27.992;2023-03-01T10:27:51;28.50;99.90
26479;DHT22;14163;-26.142;27.992;2023-03-01T10:30:20;28.90;99.90
26479;DHT22;14163;-26.142;27.992;2023-03-01T10:32:51;29.10;99.90
26479;DHT22;14163;-26.142;27.992;2023-03-01T10:35:20;29.30;99.90
26479;DHT22;14163;-26.142;27.992;2023-03-01T10:38:02;29.50;99.90
26479;DHT22;14163;-26.142;27.992;2023-03-01T10:40:31;29.70;99.90
26479;DHT22;14163;-26.142;27.992;2023-03-01T10:42:59;29.80;99.70
26479;DHT22;14163;-26.142;27.992;2023-03-01T10:45:33;29.90;99.90
26479;DHT22;14163;-26.142;27.992;2023-03-01T10:48:05;30.00;99.90
26479;DHT22;14163;-26.142;27.992;2023-03-01T10:50:34;30.10;99.90
26479;DHT22;14163;-26.142;27.992;2023-03-01T10:53:05;30.10;99.90
26479;DHT22;14163;-26.142;27.992;2023-03-01T10:55:46;30.20;99.90
26479;DHT22;14163;-26.142;27.992;2023-03-01T10:58:18;30.40;99.90
26479;DHT22;14163;-26.142;27.992;2023-03-01T11:00:47;30.50;99.90
26479;DHT22;14163;-26.142;27.992;2023-03-01T11:03:18;30.60;99.90
26479;DHT22;14163;-26.142;27.992;2023-03-01T11:05:52;30.60;99.90
26479;DHT22;14163;-26.142;27.992;2023-03-01T11:08:35;30.50;99.90
26479;DHT22;14163;-26.142;27.992;2023-03-01T11:11:05;30.70;99.90
26479;DHT22;14163;-26.142;27.992;2023-03-01T11:13:33;30.70;99.90
26479;DHT22;14163;-26.142;27.992;2023-03-01T11:16:03;30.60;99.90
26479;DHT22;14163;-26.142;27.992;2023-03-01T11:18:33;30.60;99.90
26479;DHT22;14163;-26.142;27.992;2023-03-01T11:21:02;30.50;99.90
26479;DHT22;14163;-26.142;27.992;2023-03-01T11:23:30;30.50;99.90
26479;DHT22;14163;-26.142;27.992;2023-03-01T11:26:02;30.40;99.90
26479;DHT22;14163;-26.142;27.992;2023-03-01T11:28:32;30.40;99.90
26479;DHT22;14163;-26.142;27.992;2023-03-01T11:31:04;30.20;99.90
26479;DHT22;14163;-26.142;27.992;2023-03-01T11:33:36;30.30;99.90
26479;DHT22;14163;-26.142;27.992;2023-03-01T11:36:06;30.40;99.90
26479;DHT22;14163;-26.142;27.992;2023-03-01T11:38:35;30.40;99.90
26479;DHT22;14163;-26.142;27.992;2023-03-01T11:41:08;30.20;99.90
26479;DHT22;14163;-26.142;27.992;2023-03-01T11:43:40;30.50;99.90
26479;DHT22;14163;-26.142;27.992;2023-03-01T11:49:01;31.20;99.90
26479;DHT22;14163;-26.142;27.992;2023-03-01T11:51:37;31.90;99.90
26479;DHT22;14163;-26.142;27.992;2023-03-01T11:54:09;32.60;97.80
26479;DHT22;14163;-26.142;27.992;2023-03-01T11:56:43;33.20;95.60
26479;DHT22;14163;-26.142;27.992;2023-03-01T12:02:00;34.50;91.50
26479;DHT22;14163;-26.142;27.992;2023-03-01T12:04:46;35.00;90.40
26479;DHT22;14163;-26.142;27.992;2023-03-01T12:07:20;35.40;85.60
26479;DHT22;14163;-26.142;27.992;2023-03-01T12:09:59;35.70;83.40
26479;DHT22;14163;-26.142;27.992;2023-03-01T12:12:37;35.90;78.50
26479;DHT22;14163;-26.142;27.992;2023-03-01T12:18:08;36.30;74.80
26479;DHT22;14163;-26.142;27.992;2023-03-01T12:20:41;36.30;73.40
26479;DHT22;14163;-26.142;27.992;2023-03-01T12:23:20;36.80;73.20
26479;DHT22;14163;-26.142;27.992;2023-03-01T12:25:53;36.70;73.20
26479;DHT22;14163;-26.142;27.992;2023-03-01T12:34:00;36.00;75.10
26479;DHT22;14163;-26.142;27.992;2023-03-01T12:36:38;35.70;75.00
26479;DHT22;14163;-26.142;27.992;2023-03-01T12:39:15;35.30;75.80
26479;DHT22;14163;-26.142;27.992;2023-03-01T12:41:50;35.00;77.50
26479;DHT22;14163;-26.142;27.992;2023-03-01T12:44:25;34.80;78.60
26479;DHT22;14163;-26.142;27.992;2023-03-01T12:47:01;34.90;78.80
26479;DHT22;14163;-26.142;27.992;2023-03-01T12:49:35;35.60;79.70
26479;DHT22;14163;-26.142;27.992;2023-03-01T12:52:09;36.40;78.00
26479;DHT22;14163;-26.142;27.992;2023-03-01T12:54:39;37.20;77.60
26479;DHT22;14163;-26.142;27.992;2023-03-01T12:57:09;38.00;75.50
26479;DHT22;14163;-26.142;27.992;2023-03-01T12:59:42;38.50;72.30
26479;DHT22;14163;-26.142;27.992;2023-03-01T13:02:13;38.90;72.10
26479;DHT22;14163;-26.142;27.992;2023-03-01T13:05:00;39.10;71.30
26479;DHT22;14163;-26.142;27.992;2023-03-01T13:07:35;38.90;70.60
26479;DHT22;14163;-26.142;27.992;2023-03-01T13:10:14;38.50;70.90
26479;DHT22;14163;-26.142;27.992;2023-03-01T13:12:47;38.40;71.30
26479;DHT22;14163;-26.142;27.992;2023-03-01T13:15:30;38.40;72.40
26479;DHT22;14163;-26.142;27.992;2023-03-01T13:17:59;38.00;71.10
26479;DHT22;14163;-26.142;27.992;2023-03-01T13:20:30;37.70;70.60
26479;DHT22;14163;-26.142;27.992;2023-03-01T13:23:02;37.70;70.10
26479;DHT22;14163;-26.142;27.992;2023-03-01T13:25:31;38.10;70.50
26479;DHT22;14163;-26.142;27.992;2023-03-01T13:30:46;38.70;67.00
26479;DHT22;14163;-26.142;27.992;2023-03-01T13:35:58;39.60;67.20
26479;DHT22;14163;-26.142;27.992;2023-03-01T13:38:45;39.90;64.40
26479;DHT22;14163;-26.142;27.992;2023-03-01T13:41:14;40.10;63.80
26479;DHT22;14163;-26.142;27.992;2023-03-01T13:43:43;40.40;61.70
26479;DHT22;14163;-26.142;27.992;2023-03-01T13:46:15;40.50;61.60
26479;DHT22;14163;-26.142;27.992;2023-03-01T13:48:45;40.50;60.90
26479;DHT22;14163;-26.142;27.992;2023-03-01T13:51:20;40.40;61.50
26479;DHT22;14163;-26.142;27.992;2023-03-01T13:53:49;40.10;62.30
26479;DHT22;14163;-26.142;27.992;2023-03-01T13:56:17;39.70;62.20
26479;DHT22;14163;-26.142;27.992;2023-03-01T13:58:51;39.10;61.40
26479;DHT22;14163;-26.142;27.992;2023-03-01T14:01:24;38.60;63.20
26479;DHT22;14163;-26.142;27.992;2023-03-01T14:03:53;38.20;63.00
26479;DHT22;14163;-26.142;27.992;2023-03-01T14:06:24;37.70;63.60
26479;DHT22;14163;-26.142;27.992;2023-03-01T14:09:00;37.20;64.20
26479;DHT22;14163;-26.142;27.992;2023-03-01T14:11:43;36.90;64.70
26479;DHT22;14163;-26.142;27.992;2023-03-01T14:14:34;36.60;65.70
26479;DHT22;14163;-26.142;27.992;2023-03-01T14:17:09;36.30;66.90
26479;DHT22;14163;-26.142;27.992;2023-03-01T14:19:43;35.90;66.40
26479;DHT22;14163;-26.142;27.992;2023-03-01T14:22:16;35.60;67.10
26479;DHT22;14163;-26.142;27.992;2023-03-01T14:24:47;35.40;67.20
26479;DHT22;14163;-26.142;27.992;2023-03-01T14:27:16;35.30;67.40
26479;DHT22;14163;-26.142;27.992;2023-03-01T14:29:53;35.30;67.60
26479;DHT22;14163;-26.142;27.992;2023-03-01T14:32:24;35.20;67.80
26479;DHT22;14163;-26.142;27.992;2023-03-01T14:34:53;35.20;69.60
26479;DHT22;14163;-26.142;27.992;2023-03-01T14:37:24;35.10;71.60
26479;DHT22;14163;-26.142;27.992;2023-03-01T14:39:53;35.00;72.20
26479;DHT22;14163;-26.142;27.992;2023-03-01T14:42:22;34.70;72.90
26479;DHT22;14163;-26.142;27.992;2023-03-01T14:44:51;34.40;73.50
26479;DHT22;14163;-26.142;27.992;2023-03-01T14:47:23;33.90;74.50
26479;DHT22;14163;-26.142;27.992;2023-03-01T14:49:55;33.60;75.40
26479;DHT22;14163;-26.142;27.992;2023-03-01T14:52:28;33.10;77.00
26479;DHT22;14163;-26.142;27.992;2023-03-01T14:55:00;32.90;77.80
26479;DHT22;14163;-26.142;27.992;2023-03-01T14:57:30;32.80;78.60
26479;DHT22;14163;-26.142;27.992;2023-03-01T14:59:59;32.60;79.10
26479;DHT22;14163;-26.142;27.992;2023-03-01T15:02:30;32.50;79.60
26479;DHT22;14163;-26.142;27.992;2023-03-01T15:05:00;32.50;79.90
26479;DHT22;14163;-26.142;27.992;2023-03-01T15:07:32;32.50;79.60
26479;DHT22;14163;-26.142;27.992;2023-03-01T15:10:02;32.50;79.80
26479;DHT22;14163;-26.142;27.992;2023-03-01T15:12:39;32.50;79.70
26479;DHT22;14163;-26.142;27.992;2023-03-01T15:18:03;32.50;78.30
26479;DHT22;14163;-26.142;27.992;2023-03-01T15:20:42;32.50;77.70
26479;DHT22;14163;-26.142;27.992;2023-03-01T15:23:20;32.50;78.10
26479;DHT22;14163;-26.142;27.992;2023-03-01T15:25:58;32.60;77.10
26479;DHT22;14163;-26.142;27.992;2023-03-01T15:28:30;32.60;76.40
26479;DHT22;14163;-26.142;27.992;2023-03-01T15:31:20;32.40;76.20
26479;DHT22;14163;-26.142;27.992;2023-03-01T15:33:50;32.30;76.00
26479;DHT22;14163;-26.142;27.992;2023-03-01T15:36:39;32.20;76.40
26479;DHT22;14163;-26.142;27.992;2023-03-01T15:39:32;32.20;76.20
26479;DHT22;14163;-26.142;27.992;2023-03-01T15:42:06;32.20;76.00
26479;DHT22;14163;-26.142;27.992;2023-03-01T15:44:36;32.10;74.90
26479;DHT22;14163;-26.142;27.992;2023-03-01T15:47:20;32.20;74.60
26479;DHT22;14163;-26.142;27.992;2023-03-01T15:49:53;32.20;75.00
26479;DHT22;14163;-26.142;27.992;2023-03-01T15:52:25;32.20;75.30
26479;DHT22;14163;-26.142;27.992;2023-03-01T15:54:58;32.10;75.10
26479;DHT22;14163;-26.142;27.992;2023-03-01T15:57:34;32.20;75.60
26479;DHT22;14163;-26.142;27.992;2023-03-01T16:00:04;32.20;75.70
26479;DHT22;14163;-26.142;27.992;2023-03-01T18:05:11;25.70;99.90
26479;DHT22;14163;-26.142;27.992;2023-03-01T18:07:40;25.70;99.90
26479;DHT22;14163;-26.142;27.992;2023-03-01T18:10:10;26.40;99.80
26479;DHT22;14163;-26.142;27.992;2023-03-01T18:12:39;27.10;98.60
26479;DHT22;14163;-26.142;27.992;2023-03-01T18:15:09;27.80;97.20
26479;DHT22;14163;-26.142;27.992;2023-03-01T18:17:39;28.40;96.10
26479;DHT22;14163;-26.142;27.992;2023-03-01T18:20:10;28.70;95.30
26479;DHT22;14163;-26.142;27.992;2023-03-01T18:22:41;29.10;94.60
26479;DHT22;14163;-26.142;27.992;2023-03-01T18:25:10;29.30;93.80
26479;DHT22;14163;-26.142;27.992;2023-03-01T18:27:39;29.40;93.50
26479;DHT22;14163;-26.142;27.992;2023-03-01T18:30:10;29.50;93.00
26479;DHT22;14163;-26.142;27.992;2023-03-01T18:32:39;29.50;92.90
26479;DHT22;14163;-26.142;27.992;2023-03-01T18:35:12;29.60;92.60
26479;DHT22;14163;-26.142;27.992;2023-03-01T18:37:41;29.60;92.50
26479;DHT22;14163;-26.142;27.992;2023-03-01T18:40:11;29.60;92.60
26479;DHT22;14163;-26.142;27.992;2023-03-01T18:42:40;29.50;92.40
26479;DHT22;14163;-26.142;27.992;2023-03-01T18:45:10;29.50;92.40
26479;DHT22;14163;-26.142;27.992;2023-03-01T18:47:40;29.50;92.30
26479;DHT22;14163;-26.142;27.992;2023-03-01T18:50:12;29.50;92.40
26479;DHT22;14163;-26.142;27.992;2023-03-01T18:52:41;29.50;92.50
26479;DHT22;14163;-26.142;27.992;2023-03-01T18:55:10;29.50;92.60
26479;DHT22;14163;-26.142;27.992;2023-03-01T18:57:40;29.40;92.80
26479;DHT22;14163;-26.142;27.992;2023-03-01T19:00:10;29.40;92.90
26479;DHT22;14163;-26.142;27.992;2023-03-01T19:02:39;29.30;93.00
26479;DHT22;14163;-26.142;27.992;2023-03-01T19:05:09;29.30;93.20
26479;DHT22;14163;-26.142;27.992;2023-03-01T19:07:40;29.20;93.40
26479;DHT22;14163;-26.142;27.992;2023-03-01T19:10:10;29.10;93.60
26479;DHT22;14163;-26.142;27.992;2023-03-01T19:12:39;29.10;93.90
26479;DHT22;14163;-26.142;27.992;2023-03-01T19:15:09;29.10;94.00
26479;DHT22;14163;-26.142;27.992;2023-03-01T19:17:38;29.10;93.90
26479;DHT22;14163;-26.142;27.992;2023-03-01T19:20:09;29.00;94.00
26479;DHT22;14163;-26.142;27.992;2023-03-01T19:22:40;29.00;94.00
26479;DHT22;14163;-26.142;27.992;2023-03-01T19:25:10;29.00;94.10
26479;DHT22;14163;-26.142;27.992;2023-03-01T19:27:39;28.90;94.20
26479;DHT22;14163;-26.142;27.992;2023-03-01T19:30:09;28.80;94.30
26479;DHT22;14163;-26.142;27.992;2023-03-01T19:32:39;28.70;94.50
26479;DHT22;14163;-26.142;27.992;2023-03-01T19:35:08;28.70;94.60
26479;DHT22;14163;-26.142;27.992;2023-03-01T19:37:39;28.70;94.70
26479;DHT22;14163;-26.142;27.992;2023-03-01T19:40:09;28.70;94.70
26479;DHT22;14163;-26.142;27.992;2023-03-01T19:42:39;28.60;94.80
26479;DHT22;14163;-26.142;27.992;2023-03-01T19:45:09;28.60;94.80
26479;DHT22;14163;-26.142;27.992;2023-03-01T19:47:38;28.60;95.00
26479;DHT22;14163;-26.142;27.992;2023-03-01T19:50:08;28.50;95.10
26479;DHT22;14163;-26.142;27.992;2023-03-01T19:52:39;28.50;95.30
26479;DHT22;14163;-26.142;27.992;2023-03-01T19:55:09;28.50;95.50
26479;DHT22;14163;-26.142;27.992;2023-03-01T19:57:38;28.50;95.70
26479;DHT22;14163;-26.142;27.992;2023-03-01T20:00:09;28.40;96.10
26479;DHT22;14163;-26.142;27.992;2023-03-01T20:02:38;28.30;96.30
26479;DHT22;14163;-26.142;27.992;2023-03-01T20:05:08;28.30;96.70
26479;DHT22;14163;-26.142;27.992;2023-03-01T20:07:39;28.30;96.90
26479;DHT22;14163;-26.142;27.992;2023-03-01T20:10:09;28.30;97.10
26479;DHT22;14163;-26.142;27.992;2023-03-01T20:12:38;28.20;97.40
26479;DHT22;14163;-26.142;27.992;2023-03-01T20:15:08;28.20;97.70
26479;DHT22;14163;-26.142;27.992;2023-03-01T20:17:38;28.20;98.10
26479;DHT22;14163;-26.142;27.992;2023-03-01T20:20:08;28.10;98.30
26479;DHT22;14163;-26.142;27.992;2023-03-01T20:22:39;28.00;98.70
26479;DHT22;14163;-26.142;27.992;2023-03-01T20:25:09;28.00;98.90
26479;DHT22;14163;-26.142;27.992;2023-03-01T20:27:38;28.00;99.20
26479;DHT22;14163;-26.142;27.992;2023-03-01T20:30:09;28.00;99.40
26479;DHT22;14163;-26.142;27.992;2023-03-01T20:32:38;28.00;99.60
26479;DHT22;14163;-26.142;27.992;2023-03-01T20:35:08;27.90;99.80
26479;DHT22;14163;-26.142;27.992;2023-03-01T20:37:39;27.90;99.90
26479;DHT22;14163;-26.142;27.992;2023-03-01T20:40:10;27.90;99.90
26479;DHT22;14163;-26.142;27.992;2023-03-01T20:42:39;27.90;99.90
26479;DHT22;14163;-26.142;27.992;2023-03-01T20:45:09;27.80;99.90
26479;DHT22;14163;-26.142;27.992;2023-03-01T20:47:39;27.80;99.90
26479;DHT22;14163;-26.142;27.992;2023-03-01T20:50:09;27.80;99.90
26479;DHT22;14163;-26.142;27.992;2023-03-01T20:52:41;27.80;99.90
26479;DHT22;14163;-26.142;27.992;2023-03-01T20:55:11;27.80;99.90
26479;DHT22;14163;-26.142;27.992;2023-03-01T20:57:40;27.80;99.90
26479;DHT22;14163;-26.142;27.992;2023-03-01T21:00:10;27.70;99.90
26479;DHT22;14163;-26.142;27.992;2023-03-01T21:02:40;27.70;99.90
26479;DHT22;14163;-26.142;27.992;2023-03-01T21:05:09;27.60;99.90
26479;DHT22;14163;-26.142;27.992;2023-03-01T21:07:40;27.50;99.90
26479;DHT22;14163;-26.142;27.992;2023-03-01T21:10:11;27.50;99.90
26479;DHT22;14163;-26.142;27.992;2023-03-01T21:12:40;27.40;99.90
26479;DHT22;14163;-26.142;27.992;2023-03-01T21:15:10;27.30;99.90
26479;DHT22;14163;-26.142;27.992;2023-03-01T21:17:39;27.30;99.90
26479;DHT22;14163;-26.142;27.992;2023-03-01T21:20:10;27.20;99.90
26479;DHT22;14163;-26.142;27.992;2023-03-01T21:22:41;27.20;99.90
26479;DHT22;14163;-26.142;27.992;2023-03-01T21:25:10;27.10;99.90
26479;DHT22;14163;-26.142;27.992;2023-03-01T21:27:39;27.00;99.90
26479;DHT22;14163;-26.142;27.992;2023-03-01T21:30:09;27.00;99.90
26479;DHT22;14163;-26.142;27.992;2023-03-01T21:32:39;27.00;99.90
26479;DHT22;14163;-26.142;27.992;2023-03-01T21:35:08;26.90;99.90
26479;DHT22;14163;-26.142;27.992;2023-03-01T21:37:39;26.80;99.90
26479;DHT22;14163;-26.142;27.992;2023-03-01T21:40:10;26.80;99.90
26479;DHT22;14163;-26.142;27.992;2023-03-01T21:42:39;26.70;99.90
26479;DHT22;14163;-26.142;27.992;2023-03-01T21:45:10;26.60;99.90
26479;DHT22;14163;-26.142;27.992;2023-03-01T21:47:39;26.70;99.90
26479;DHT22;14163;-26.142;27.992;2023-03-01T21:50:10;26.60;99.90
26479;DHT22;14163;-26.142;27.992;2023-03-01T21:52:41;26.60;99.90
26479;DHT22;14163;-26.142;27.992;2023-03-01T21:55:10;26.50;99.90
26479;DHT22;14163;-26.142;27.992;2023-03-01T21:57:39;26.40;99.90